sensor_id;sensor_type;location;lat;lon;timestamp;temperature;humidity
9925;DHT22;5001;51.674;7.868;2023-02-26T00:01:30;-1.30;1.00
9925;DHT22;5001;51.674;7.868;2023-02-26T00:04:00;-1.30;1.00
9925;DHT22;5001;51.674;7.868;2023-02-26T00:06:30;-1.40;1.00
9925;DHT22;5001;51.674;7.868;2023-02-26T00:08:57;-1.40;1.00
9925;DHT22;5001;51.674;7.868;2023-02-26T00:11:25;-1.40;1.00
9925;DHT22;5001;51.674;7.868;2023-02-26T00:13:52;-1.50;1.00
9925;DHT22;5001;51.674;7.868;2023-02-26T00:16:29;-1.40;1.00
9925;DHT22;5001;51.674;7.868;2023-02-26T00:18:59;-1.50;1.00
9925;DHT22;5001;51.674;7.868;2023-02-26T00:21:28;-1.50;1.00
9925;DHT22;5001;51.674;7.868;2023-02-26T00:23:55;-1.40;1.00
9925;DHT22;5001;51.674;7.868;2023-02-26T00:26:23;-1.50;1.00
9925;DHT22;5001;51.674;7.868;2023-02-26T00:28:51;-1.50;1.00
9925;DHT22;5001;51.674;7.868;2023-02-26T00:31:19;-1.50;1.00
9925;DHT22;5001;51.674;7.868;2023-02-26T00:33:55;-1.50;1.00
9925;DHT22;5001;51.674;7.868;2023-02-26T00:42:05;-1.70;1.00
9925;DHT22;5001;51.674;7.868;2023-02-26T00:44:32;-1.70;1.00
9925;DHT22;5001;51.674;7.868;2023-02-26T00:47:09;-1.70;1.00
9925;DHT22;5001;51.674;7.868;2023-02-26T00:55:05;-1.70;1.00
9925;DHT22;5001;51.674;7.868;2023-02-26T00:57:34;-1.80;1.00
9925;DHT22;5001;51.674;7.868;2023-02-26T01:00:03;-1.90;1.00
9925;DHT22;5001;51.674;7.868;2023-02-26T01:02:34;-1.80;1.00
9925;DHT22;5001;51.674;7.868;2023-02-26T01:05:02;-1.90;1.00
9925;DHT22;5001;51.674;7.868;2023-02-26T01:10:28;-1.80;1.00
9925;DHT22;5001;51.674;7.868;2023-02-26T01:12:56;-1.80;1.00
9925;DHT22;5001;51.674;7.868;2023-02-26T01:15:24;-1.80;1.00
9925;DHT22;5001;51.674;7.868;2023-02-26T01:20:31;-1.80;1.00
9925;DHT22;5001;51.674;7.868;2023-02-26T01:23:13;-1.80;1.00
9925;DHT22;5001;51.674;7.868;2023-02-26T01:25:59;-1.80;1.00
9925;DHT22;5001;51.674;7.868;2023-02-26T01:28:30;-1.80;1.00
9925;DHT22;5001;51.674;7.868;2023-02-26T01:31:02;-1.80;99.90
9925;DHT22;5001;51.674;7.868;2023-02-26T01:33:43;-1.80;99.90
9925;DHT22;5001;51.674;7.868;2023-02-26T01:36:21;-1.80;99.90
9925;DHT22;5001;51.674;7.868;2023-02-26T01:39:06;-1.80;99.90
9925;DHT22;5001;51.674;7.868;2023-02-26T01:41:47;-1.80;99.90
9925;DHT22;5001;51.674;7.868;2023-02-26T01:49:48;-1.80;99.90
9925;DHT22;5001;51.674;7.868;2023-02-26T01:55:01;-1.80;99.90
9925;DHT22;5001;51.674;7.868;2023-02-26T01:57:28;-1.80;99.90
9925;DHT22;5001;51.674;7.868;2023-02-26T01:59:55;-1.80;99.90
9925;DHT22;5001;51.674;7.868;2023-02-26T02:02:23;-1.80;99.90
9925;DHT22;5001;51.674;7.868;2023-02-26T02:04:51;-1.80;99.90
9925;DHT22;5001;51.674;7.868;2023-02-26T02:07:19;-1.80;99.90
9925;DHT22;5001;51.674;7.868;2023-02-26T02:09:47;-1.80;99.90
9925;DHT22;5001;51.674;7.868;2023-02-26T02:12:35;-1.90;99.90
9925;DHT22;5001;51.674;7.868;2023-02-26T02:15:34;-1.90;99.90
9925;DHT22;5001;51.674;7.868;2023-02-26T02:18:11;-2.00;99.90
9925;DHT22;5001;51.674;7.868;2023-02-26T02:20:56;-2.10;99.90
9925;DHT22;5001;51.674;7.868;2023-02-26T02:23:44;-2.20;99.90
9925;DHT22;5001;51.674;7.868;2023-02-26T02:27:10;-2.20;99.90
9925;DHT22;5001;51.674;7.868;2023-02-26T02:32:20;-2.10;99.90
9925;DHT22;5001;51.674;7.868;2023-02-26T02:34:59;-2.10;99.90
9925;DHT22;5001;51.674;7.868;2023-02-26T02:37:33;-2.00;98.20
9925;DHT22;5001;51.674;7.868;2023-02-26T02:40:09;-2.00;93.50
9925;DHT22;5001;51.674;7.868;2023-02-26T02:42:45;-1.90;82.30
9925;DHT22;5001;51.674;7.868;2023-02-26T02:45:25;-1.90;62.40
9925;DHT22;5001;51.674;7.868;2023-02-26T02:48:00;-1.90;49.50
9925;DHT22;5001;51.674;7.868;2023-02-26T02:50:44;-1.90;28.10
9925;DHT22;5001;51.674;7.868;2023-02-26T02:53:17;-1.90;43.80
9925;DHT22;5001;51.674;7.868;2023-02-26T02:56:01;-1.80;63.00
9925;DHT22;5001;51.674;7.868;2023-02-26T02:58:31;-1.80;62.20
9925;DHT22;5001;51.674;7.868;2023-02-26T03:01:05;-1.80;45.90
9925;DHT22;5001;51.674;7.868;2023-02-26T03:06:07;-1.70;23.70
9925;DHT22;5001;51.674;7.868;2023-02-26T03:08:37;-1.70;11.20
9925;DHT22;5001;51.674;7.868;2023-02-26T03:11:08;-1.80;10.50
9925;DHT22;5001;51.674;7.868;2023-02-26T03:13:36;-1.80;18.10
9925;DHT22;5001;51.674;7.868;2023-02-26T03:24:17;-1.90;1.00
9925;DHT22;5001;51.674;7.868;2023-02-26T03:26:56;-1.90;1.00
9925;DHT22;5001;51.674;7.868;2023-02-26T03:29:37;-2.00;1.00
9925;DHT22;5001;51.674;7.868;2023-02-26T03:32:18;-2.10;1.00
9925;DHT22;5001;51.674;7.868;2023-02-26T03:34:52;-2.10;1.00
9925;DHT22;5001;51.674;7.868;2023-02-26T03:37:55;-2.10;1.00
9925;DHT22;5001;51.674;7.868;2023-02-26T03:40:40;-2.10;1.00
9925;DHT22;5001;51.674;7.868;2023-02-26T03:43:21;-2.10;1.00
9925;DHT22;5001;51.674;7.868;2023-02-26T03:45:52;-2.10;1.00
9925;DHT22;5001;51.674;7.868;2023-02-26T03:48:25;-2.20;1.00
9925;DHT22;5001;51.674;7.868;2023-02-26T03:50:59;-2.30;1.00
9925;DHT22;5001;51.674;7.868;2023-02-26T03:54:36;-2.30;8.10
9925;DHT22;5001;51.674;7.868;2023-02-26T03:56:45;-2.30;2.00
9925;DHT22;5001;51.674;7.868;2023-02-26T03:59:33;-2.20;1.00
9925;DHT22;5001;51.674;7.868;2023-02-26T04:02:33;-2.20;1.00
9925;DHT22;5001;51.674;7.868;2023-02-26T04:05:15;-2.20;1.00
9925;DHT22;5001;51.674;7.868;2023-02-26T04:07:45;-2.20;1.00
9925;DHT22;5001;51.674;7.868;2023-02-26T04:10:20;-2.30;1.00
9925;DHT22;5001;51.674;7.868;2023-02-26T04:12:47;-2.30;1.00
9925;DHT22;5001;51.674;7.868;2023-02-26T04:15:14;-2.30;1.00
9925;DHT22;5001;51.674;7.868;2023-02-26T04:17:41;-2.40;1.00
9925;DHT22;5001;51.674;7.868;2023-02-26T04:20:09;-2.30;1.00
9925;DHT22;5001;51.674;7.868;2023-02-26T04:22:38;-2.30;1.00
9925;DHT22;5001;51.674;7.868;2023-02-26T04:25:05;-2.30;1.00
9925;DHT22;5001;51.674;7.868;2023-02-26T04:27:32;-2.30;1.00
9925;DHT22;5001;51.674;7.868;2023-02-26T04:29:59;-2.40;1.00
9925;DHT22;5001;51.674;7.868;2023-02-26T04:32:26;-2.40;1.00
9925;DHT22;5001;51.674;7.868;2023-02-26T04:34:53;-2.40;1.00
9925;DHT22;5001;51.674;7.868;2023-02-26T04:37:21;-2.40;1.00
9925;DHT22;5001;51.674;7.868;2023-02-26T04:39:48;-2.50;1.00
9925;DHT22;5001;51.674;7.868;2023-02-26T04:42:15;-2.50;1.00
9925;DHT22;5001;51.674;7.868;2023-02-26T04:44:42;-2.50;1.00
9925;DHT22;5001;51.674;7.868;2023-02-26T04:47:11;-2.50;1.00
9925;DHT22;5001;51.674;7.868;2023-02-26T04:49:38;-2.60;1.00
9925;DHT22;5001;51.674;7.868;2023-02-26T04:52:05;-2.60;1.00
9925;DHT22;5001;51.674;7.868;2023-02-26T04:54:33;-2.60;1.00
9925;DHT22;5001;51.674;7.868;2023-02-26T04:57:00;-2.70;1.00
9925;DHT22;5001;51.674;7.868;2023-02-26T04:59:27;-2.70;1.00
9925;DHT22;5001;51.674;7.868;2023-02-26T05:01:55;-2.70;1.00
9925;DHT22;5001;51.674;7.868;2023-02-26T05:04:22;-2.60;1.00
9925;DHT22;5001;51.674;7.868;2023-02-26T05:06:52;-2.70;1.00
9925;DHT22;5001;51.674;7.868;2023-02-26T05:09:19;-2.80;1.00
9925;DHT22;5001;51.674;7.868;2023-02-26T05:11:47;-2.80;1.00
9925;DHT22;5001;51.674;7.868;2023-02-26T05:14:15;-2.80;1.00
9925;DHT22;5001;51.674;7.868;2023-02-26T05:16:44;-2.80;1.00
9925;DHT22;5001;51.674;7.868;2023-02-26T05:19:11;-2.70;1.00
9925;DHT22;5001;51.674;7.868;2023-02-26T05:21:38;-2.70;1.00
9925;DHT22;5001;51.674;7.868;2023-02-26T05:24:05;-2.70;1.00
9925;DHT22;5001;51.674;7.868;2023-02-26T05:26:32;-2.60;1.00
9925;DHT22;5001;51.674;7.868;2023-02-26T05:28:59;-2.60;1.00
9925;DHT22;5001;51.674;7.868;2023-02-26T05:31:26;-2.70;1.00
9925;DHT22;5001;51.674;7.868;2023-02-26T05:33:53;-2.70;1.00
9925;DHT22;5001;51.674;7.868;2023-02-26T05:36:20;-2.70;1.00
9925;DHT22;5001;51.674;7.868;2023-02-26T05:38:47;-2.60;1.00
9925;DHT22;5001;51.674;7.868;2023-02-26T05:41:14;-2.60;1.00
9925;DHT22;5001;51.674;7.868;2023-02-26T05:43:41;-2.70;1.00
9925;DHT22;5001;51.674;7.868;2023-02-26T05:46:08;-2.70;1.00
9925;DHT22;5001;51.674;7.868;2023-02-26T05:48:34;-2.70;1.00
9925;DHT22;5001;51.674;7.868;2023-02-26T05:51:01;-2.70;1.00
9925;DHT22;5001;51.674;7.868;2023-02-26T05:53:28;-2.60;1.00
9925;DHT22;5001;51.674;7.868;2023-02-26T05:55:55;-2.70;1.00
9925;DHT22;5001;51.674;7.868;2023-02-26T05:58:22;-2.70;1.00
9925;DHT22;5001;51.674;7.868;2023-02-26T06:00:49;-2.70;1.00
9925;DHT22;5001;51.674;7.868;2023-02-26T06:03:16;-2.70;1.00
9925;DHT22;5001;51.674;7.868;2023-02-26T06:05:43;-2.70;1.00
9925;DHT22;5001;51.674;7.868;2023-02-26T06:08:10;-2.60;1.00
9925;DHT22;5001;51.674;7.868;2023-02-26T06:10:42;-2.70;1.00
9925;DHT22;5001;51.674;7.868;2023-02-26T06:13:10;-2.60;1.00
9925;DHT22;5001;51.674;7.868;2023-02-26T06:15:37;-2.70;1.00
9925;DHT22;5001;51.674;7.868;2023-02-26T06:18:04;-2.60;1.00
9925;DHT22;5001;51.674;7.868;2023-02-26T06:20:31;-2.60;1.00
9925;DHT22;5001;51.674;7.868;2023-02-26T06:22:58;-2.50;1.00
9925;DHT22;5001;51.674;7.868;2023-02-26T06:25:25;-2.50;1.00
9925;DHT22;5001;51.674;7.868;2023-02-26T06:27:52;-2.40;1.00
9925;DHT22;5001;51.674;7.868;2023-02-26T06:30:19;-2.40;1.00
9925;DHT22;5001;51.674;7.868;2023-02-26T06:32:46;-2.30;1.00
9925;DHT22;5001;51.674;7.868;2023-02-26T06:35:13;-2.20;1.00
9925;DHT22;5001;51.674;7.868;2023-02-26T06:37:40;-2.30;1.00
9925;DHT22;5001;51.674;7.868;2023-02-26T06:40:09;-2.20;1.00
9925;DHT22;5001;51.674;7.868;2023-02-26T06:42:36;-2.30;1.00
9925;DHT22;5001;51.674;7.868;2023-02-26T06:45:03;-2.30;1.00
9925;DHT22;5001;51.674;7.868;2023-02-26T06:47:31;-2.20;1.00
9925;DHT22;5001;51.674;7.868;2023-02-26T06:49:58;-2.20;1.00
9925;DHT22;5001;51.674;7.868;2023-02-26T06:52:25;-2.00;1.00
9925;DHT22;5001;51.674;7.868;2023-02-26T06:54:52;-1.90;1.00
9925;DHT22;5001;51.674;7.868;2023-02-26T06:57:19;-1.80;1.00
9925;DHT22;5001;51.674;7.868;2023-02-26T06:59:46;-1.70;1.00
9925;DHT22;5001;51.674;7.868;2023-02-26T07:02:16;-1.60;1.00
9925;DHT22;5001;51.674;7.868;2023-02-26T07:04:43;-1.60;1.00
9925;DHT22;5001;51.674;7.868;2023-02-26T07:07:11;-1.50;1.00
9925;DHT22;5001;51.674;7.868;2023-02-26T07:09:38;-1.50;1.00
9925;DHT22;5001;51.674;7.868;2023-02-26T07:12:06;-1.60;1.00
9925;DHT22;5001;51.674;7.868;2023-02-26T07:14:34;-1.70;1.00
9925;DHT22;5001;51.674;7.868;2023-02-26T07:17:01;-1.60;1.00
9925;DHT22;5001;51.674;7.868;2023-02-26T07:19:29;-1.50;1.00
9925;DHT22;5001;51.674;7.868;2023-02-26T07:21:56;-1.40;1.00
9925;DHT22;5001;51.674;7.868;2023-02-26T07:24:23;-1.30;1.00
9925;DHT22;5001;51.674;7.868;2023-02-26T07:26:49;-1.10;1.00
9925;DHT22;5001;51.674;7.868;2023-02-26T07:29:16;-1.20;1.00
9925;DHT22;5001;51.674;7.868;2023-02-26T07:31:44;-1.30;1.00
9925;DHT22;5001;51.674;7.868;2023-02-26T07:34:11;-1.30;1.00
9925;DHT22;5001;51.674;7.868;2023-02-26T07:36:39;-1.30;1.00
9925;DHT22;5001;51.674;7.868;2023-02-26T07:39:06;-1.30;1.00
9925;DHT22;5001;51.674;7.868;2023-02-26T07:41:33;-1.30;1.00
9925;DHT22;5001;51.674;7.868;2023-02-26T07:43:59;-1.30;1.00
9925;DHT22;5001;51.674;7.868;2023-02-26T07:46:27;-1.30;1.00
9925;DHT22;5001;51.674;7.868;2023-02-26T07:48:54;-1.20;1.00
9925;DHT22;5001;51.674;7.868;2023-02-26T07:51:21;-1.20;1.00
9925;DHT22;5001;51.674;7.868;2023-02-26T07:53:49;-1.10;1.00
9925;DHT22;5001;51.674;7.868;2023-02-26T07:56:15;-1.00;1.00
9925;DHT22;5001;51.674;7.868;2023-02-26T07:58:42;-0.90;1.00
9925;DHT22;5001;51.674;7.868;2023-02-26T08:01:09;-0.90;1.00
9925;DHT22;5001;51.674;7.868;2023-02-26T08:03:36;-0.80;1.00
9925;DHT22;5001;51.674;7.868;2023-02-26T08:06:04;-0.80;1.00
9925;DHT22;5001;51.674;7.868;2023-02-26T08:08:31;-0.70;1.00
9925;DHT22;5001;51.674;7.868;2023-02-26T08:10:59;-0.60;1.00
9925;DHT22;5001;51.674;7.868;2023-02-26T08:13:27;-0.60;1.00
9925;DHT22;5001;51.674;7.868;2023-02-26T08:15:54;-0.60;1.00
9925;DHT22;5001;51.674;7.868;2023-02-26T08:18:20;-0.50;1.00
9925;DHT22;5001;51.674;7.868;2023-02-26T08:20:50;-0.50;1.00
9925;DHT22;5001;51.674;7.868;2023-02-26T08:23:18;-0.40;1.00
9925;DHT22;5001;51.674;7.868;2023-02-26T08:25:45;-0.30;1.00
9925;DHT22;5001;51.674;7.868;2023-02-26T08:28:12;-0.30;1.00
9925;DHT22;5001;51.674;7.868;2023-02-26T08:30:39;-0.20;1.00
9925;DHT22;5001;51.674;7.868;2023-02-26T08:33:06;-0.10;1.00
9925;DHT22;5001;51.674;7.868;2023-02-26T08:35:32;-0.10;1.00
9925;DHT22;5001;51.674;7.868;2023-02-26T08:37:59;0.00;1.00
9925;DHT22;5001;51.674;7.868;2023-02-26T08:40:26;0.10;1.00
9925;DHT22;5001;51.674;7.868;2023-02-26T08:42:53;0.10;1.00
9925;DHT22;5001;51.674;7.868;2023-02-26T08:45:20;0.20;1.00
9925;DHT22;5001;51.674;7.868;2023-02-26T08:47:47;0.20;1.00
9925;DHT22;5001;51.674;7.868;2023-02-26T08:50:24;0.30;1.00
9925;DHT22;5001;51.674;7.868;2023-02-26T08:52:51;0.40;1.00
9925;DHT22;5001;51.674;7.868;2023-02-26T08:55:18;0.40;1.00
9925;DHT22;5001;51.674;7.868;2023-02-26T08:57:45;0.50;1.00
9925;DHT22;5001;51.674;7.868;2023-02-26T09:00:13;0.70;1.00
9925;DHT22;5001;51.674;7.868;2023-02-26T09:02:42;0.80;1.00
9925;DHT22;5001;51.674;7.868;2023-02-26T09:05:09;0.80;1.00
9925;DHT22;5001;51.674;7.868;2023-02-26T09:07:38;0.80;1.00
9925;DHT22;5001;51.674;7.868;2023-02-26T09:10:06;0.90;1.00
9925;DHT22;5001;51.674;7.868;2023-02-26T09:12:33;1.10;1.00
9925;DHT22;5001;51.674;7.868;2023-02-26T09:15:07;2.20;1.00
9925;DHT22;5001;51.674;7.868;2023-02-26T09:17:35;8.20;1.00
9925;DHT22;5001;51.674;7.868;2023-02-26T09:20:03;11.20;1.00
9925;DHT22;5001;51.674;7.868;2023-02-26T09:22:30;13.30;1.00
9925;DHT22;5001;51.674;7.868;2023-02-26T09:24:56;14.20;1.00
9925;DHT22;5001;51.674;7.868;2023-02-26T09:27:24;14.80;1.00
9925;DHT22;5001;51.674;7.868;2023-02-26T09:29:51;14.90;1.00
9925;DHT22;5001;51.674;7.868;2023-02-26T09:32:17;14.20;1.00
9925;DHT22;5001;51.674;7.868;2023-02-26T09:34:44;14.10;1.00
9925;DHT22;5001;51.674;7.868;2023-02-26T09:37:11;14.80;1.00
9925;DHT22;5001;51.674;7.868;2023-02-26T09:39:38;12.90;1.00
9925;DHT22;5001;51.674;7.868;2023-02-26T09:44:37;15.50;1.00
9925;DHT22;5001;51.674;7.868;2023-02-26T09:47:07;14.60;1.00
9925;DHT22;5001;51.674;7.868;2023-02-26T09:50:02;14.10;1.00
9925;DHT22;5001;51.674;7.868;2023-02-26T09:55:18;14.60;1.00
9925;DHT22;5001;51.674;7.868;2023-02-26T09:57:53;14.70;1.00
9925;DHT22;5001;51.674;7.868;2023-02-26T10:11:48;14.90;1.00
9925;DHT22;5001;51.674;7.868;2023-02-26T10:17:38;17.00;1.00
9925;DHT22;5001;51.674;7.868;2023-02-26T10:25:50;14.50;1.00
9925;DHT22;5001;51.674;7.868;2023-02-26T10:28:33;13.00;1.00
9925;DHT22;5001;51.674;7.868;2023-02-26T10:31:06;14.70;1.00
9925;DHT22;5001;51.674;7.868;2023-02-26T10:33:58;14.70;1.00
9925;DHT22;5001;51.674;7.868;2023-02-26T10:39:40;14.10;1.00
9925;DHT22;5001;51.674;7.868;2023-02-26T10:42:16;16.60;1.00
9925;DHT22;5001;51.674;7.868;2023-02-26T10:47:54;14.00;1.00
9925;DHT22;5001;51.674;7.868;2023-02-26T10:50:24;15.90;1.00
9925;DHT22;5001;51.674;7.868;2023-02-26T10:52:54;14.90;1.00
9925;DHT22;5001;51.674;7.868;2023-02-26T10:55:41;14.90;1.00
9925;DHT22;5001;51.674;7.868;2023-02-26T10:58:19;15.20;1.00
9925;DHT22;5001;51.674;7.868;2023-02-26T11:00:49;13.60;1.00
9925;DHT22;5001;51.674;7.868;2023-02-26T11:03:40;10.10;1.00
9925;DHT22;5001;51.674;7.868;2023-02-26T11:06:10;11.10;1.00
9925;DHT22;5001;51.674;7.868;2023-02-26T11:08:42;11.70;1.00
9925;DHT22;5001;51.674;7.868;2023-02-26T11:11:09;13.00;1.00
9925;DHT22;5001;51.674;7.868;2023-02-26T11:13:37;13.60;1.00
9925;DHT22;5001;51.674;7.868;2023-02-26T11:16:10;13.70;1.00
9925;DHT22;5001;51.674;7.868;2023-02-26T11:18:51;15.10;1.00
9925;DHT22;5001;51.674;7.868;2023-02-26T11:21:25;11.50;1.00
9925;DHT22;5001;51.674;7.868;2023-02-26T11:24:17;8.50;1.00
9925;DHT22;5001;51.674;7.868;2023-02-26T11:26:48;6.80;1.00
9925;DHT22;5001;51.674;7.868;2023-02-26T11:29:18;11.10;1.00
9925;DHT22;5001;51.674;7.868;2023-02-26T11:31:53;12.10;1.00
9925;DHT22;5001;51.674;7.868;2023-02-26T11:34:23;12.10;1.00
9925;DHT22;5001;51.674;7.868;2023-02-26T11:36:56;11.30;1.00
9925;DHT22;5001;51.674;7.868;2023-02-26T11:39:27;9.60;1.00
9925;DHT22;5001;51.674;7.868;2023-02-26T11:41:56;9.90;1.00
9925;DHT22;5001;51.674;7.868;2023-02-26T11:47:26;10.30;1.00
9925;DHT22;5001;51.674;7.868;2023-02-26T11:49:59;10.60;1.00
9925;DHT22;5001;51.674;7.868;2023-02-26T11:52:29;10.00;1.00
9925;DHT22;5001;51.674;7.868;2023-02-26T11:55:05;10.70;1.00
9925;DHT22;5001;51.674;7.868;2023-02-26T11:57:42;10.20;1.00
9925;DHT22;5001;51.674;7.868;2023-02-26T12:00:35;11.00;1.00
9925;DHT22;5001;51.674;7.868;2023-02-26T12:03:06;11.10;1.00
9925;DHT22;5001;51.674;7.868;2023-02-26T12:05:35;10.60;1.00
9925;DHT22;5001;51.674;7.868;2023-02-26T12:08:12;9.50;1.00
9925;DHT22;5001;51.674;7.868;2023-02-26T12:13:31;8.90;1.00
9925;DHT22;5001;51.674;7.868;2023-02-26T12:16:22;9.50;1.00
9925;DHT22;5001;51.674;7.868;2023-02-26T12:24:33;11.80;1.00
9925;DHT22;5001;51.674;7.868;2023-02-26T12:28:02;11.80;1.00
9925;DHT22;5001;51.674;7.868;2023-02-26T12:30:09;11.10;1.00
9925;DHT22;5001;51.674;7.868;2023-02-26T12:35:41;9.90;1.00
9925;DHT22;5001;51.674;7.868;2023-02-26T12:38:27;9.70;1.00
9925;DHT22;5001;51.674;7.868;2023-02-26T12:43:50;8.70;1.00
9925;DHT22;5001;51.674;7.868;2023-02-26T12:46:25;9.20;1.00
9925;DHT22;5001;51.674;7.868;2023-02-26T12:52:02;9.50;1.00
9925;DHT22;5001;51.674;7.868;2023-02-26T13:00:08;7.60;1.00
9925;DHT22;5001;51.674;7.868;2023-02-26T13:05:52;8.20;1.00
9925;DHT22;5001;51.674;7.868;2023-02-26T13:14:44;6.80;1.00
9925;DHT22;5001;51.674;7.868;2023-02-26T13:20:15;7.10;1.00
9925;DHT22;5001;51.674;7.868;2023-02-26T13:22:50;7.00;1.00
9925;DHT22;5001;51.674;7.868;2023-02-26T13:25:39;6.70;1.00
9925;DHT22;5001;51.674;7.868;2023-02-26T13:30:51;5.70;1.00
9925;DHT22;5001;51.674;7.868;2023-02-26T13:33:28;5.60;1.00
9925;DHT22;5001;51.674;7.868;2023-02-26T13:35:56;5.70;1.00
9925;DHT22;5001;51.674;7.868;2023-02-26T13:41:09;5.50;1.00
9925;DHT22;5001;51.674;7.868;2023-02-26T13:43:50;5.70;1.00
9925;DHT22;5001;51.674;7.868;2023-02-26T13:49:28;5.90;1.00
9925;DHT22;5001;51.674;7.868;2023-02-26T13:51:56;5.90;1.00
9925;DHT22;5001;51.674;7.868;2023-02-26T13:54:28;6.00;1.00
9925;DHT22;5001;51.674;7.868;2023-02-26T13:59:47;5.60;1.00
9925;DHT22;5001;51.674;7.868;2023-02-26T14:04:53;5.50;1.00
9925;DHT22;5001;51.674;7.868;2023-02-26T14:07:47;5.60;1.00
9925;DHT22;5001;51.674;7.868;2023-02-26T14:10:27;5.30;1.00
9925;DHT22;5001;51.674;7.868;2023-02-26T14:13:22;5.10;1.00
9925;DHT22;5001;51.674;7.868;2023-02-26T14:15:59;5.30;1.00
9925;DHT22;5001;51.674;7.868;2023-02-26T14:24:18;5.70;1.00
9925;DHT22;5001;51.674;7.868;2023-02-26T14:27:02;5.40;1.00
9925;DHT22;5001;51.674;7.868;2023-02-26T14:29:42;5.30;1.00
9925;DHT22;5001;51.674;7.868;2023-02-26T14:34:51;4.80;1.00
9925;DHT22;5001;51.674;7.868;2023-02-26T14:37:23;4.90;1.00
9925;DHT22;5001;51.674;7.868;2023-02-26T14:40:09;5.20;1.00
9925;DHT22;5001;51.674;7.868;2023-02-26T14:42:46;5.30;1.00
9925;DHT22;5001;51.674;7.868;2023-02-26T14:47:43;5.10;1.00
9925;DHT22;5001;51.674;7.868;2023-02-26T14:50:15;4.80;1.00
9925;DHT22;5001;51.674;7.868;2023-02-26T14:53:11;4.60;1.00
9925;DHT22;5001;51.674;7.868;2023-02-26T14:58:25;4.50;1.00
9925;DHT22;5001;51.674;7.868;2023-02-26T15:03:27;4.60;1.00
9925;DHT22;5001;51.674;7.868;2023-02-26T15:06:03;4.80;1.00
9925;DHT22;5001;51.674;7.868;2023-02-26T15:17:27;4.90;1.00
9925;DHT22;5001;51.674;7.868;2023-02-26T15:22:56;5.00;1.00
9925;DHT22;5001;51.674;7.868;2023-02-26T15:25:31;5.20;1.00
9925;DHT22;5001;51.674;7.868;2023-02-26T15:28:01;5.00;1.00
9925;DHT22;5001;51.674;7.868;2023-02-26T15:30:30;4.90;1.00
9925;DHT22;5001;51.674;7.868;2023-02-26T15:32:59;4.80;1.00
9925;DHT22;5001;51.674;7.868;2023-02-26T15:35:28;4.80;1.00
9925;DHT22;5001;51.674;7.868;2023-02-26T15:37:59;4.60;1.00
9925;DHT22;5001;51.674;7.868;2023-02-26T15:40:32;4.50;1.00
9925;DHT22;5001;51.674;7.868;2023-02-26T15:43:01;4.20;1.00
9925;DHT22;5001;51.674;7.868;2023-02-26T15:45:39;4.20;1.00
9925;DHT22;5001;51.674;7.868;2023-02-26T15:48:16;4.20;1.00
9925;DHT22;5001;51.674;7.868;2023-02-26T15:50:47;4.20;1.00
9925;DHT22;5001;51.674;7.868;2023-02-26T15:53:30;4.20;1.00
9925;DHT22;5001;51.674;7.868;2023-02-26T15:56:00;4.10;1.00
9925;DHT22;5001;51.674;7.868;2023-02-26T15:58:57;4.10;1.00
9925;DHT22;5001;51.674;7.868;2023-02-26T16:01:24;4.10;1.00
9925;DHT22;5001;51.674;7.868;2023-02-26T16:03:55;4.00;1.00
9925;DHT22;5001;51.674;7.868;2023-02-26T16:06:34;4.00;1.00
9925;DHT22;5001;51.674;7.868;2023-02-26T16:09:01;4.00;1.00
9925;DHT22;5001;51.674;7.868;2023-02-26T16:11:33;4.00;1.00
9925;DHT22;5001;51.674;7.868;2023-02-26T16:14:01;4.00;1.00
9925;DHT22;5001;51.674;7.868;2023-02-26T16:16:46;3.90;1.00
9925;DHT22;5001;51.674;7.868;2023-02-26T16:19:20;3.90;1.00
9925;DHT22;5001;51.674;7.868;2023-02-26T16:21:54;3.90;1.00
9925;DHT22;5001;51.674;7.868;2023-02-26T16:24:22;3.80;1.00
9925;DHT22;5001;51.674;7.868;2023-02-26T16:26:53;3.80;1.00
9925;DHT22;5001;51.674;7.868;2023-02-26T16:29:24;3.70;1.00
9925;DHT22;5001;51.674;7.868;2023-02-26T16:31:57;3.70;1.00
9925;DHT22;5001;51.674;7.868;2023-02-26T16:40:19;3.60;1.00
9925;DHT22;5001;51.674;7.868;2023-02-26T16:45:43;3.60;1.00
9925;DHT22;5001;51.674;7.868;2023-02-26T16:48:20;3.60;1.00
9925;DHT22;5001;51.674;7.868;2023-02-26T16:50:57;3.70;1.00
9925;DHT22;5001;51.674;7.868;2023-02-26T16:53:43;3.70;1.00
9925;DHT22;5001;51.674;7.868;2023-02-26T16:56:14;3.70;1.00
9925;DHT22;5001;51.674;7.868;2023-02-26T16:58:46;3.60;1.00
9925;DHT22;5001;51.674;7.868;2023-02-26T17:01:17;3.50;1.00
9925;DHT22;5001;51.674;7.868;2023-02-26T17:03:46;3.40;1.00
9925;DHT22;5001;51.674;7.868;2023-02-26T17:06:17;3.30;1.00
9925;DHT22;5001;51.674;7.868;2023-02-26T17:08:52;3.20;1.00
9925;DHT22;5001;51.674;7.868;2023-02-26T17:16:29;3.20;1.00
9925;DHT22;5001;51.674;7.868;2023-02-26T17:18:56;3.20;1.00
9925;DHT22;5001;51.674;7.868;2023-02-26T17:21:23;3.20;1.00
9925;DHT22;5001;51.674;7.868;2023-02-26T17:23:50;3.10;1.00
9925;DHT22;5001;51.674;7.868;2023-02-26T17:26:17;3.10;1.00
9925;DHT22;5001;51.674;7.868;2023-02-26T17:28:44;2.90;1.00
9925;DHT22;5001;51.674;7.868;2023-02-26T17:31:11;2.90;1.00
9925;DHT22;5001;51.674;7.868;2023-02-26T17:33:41;2.80;1.00
9925;DHT22;5001;51.674;7.868;2023-02-26T17:36:14;2.70;1.00
9925;DHT22;5001;51.674;7.868;2023-02-26T17:38:41;2.70;1.00
9925;DHT22;5001;51.674;7.868;2023-02-26T17:41:18;2.80;1.00
9925;DHT22;5001;51.674;7.868;2023-02-26T17:43:45;2.80;1.00
9925;DHT22;5001;51.674;7.868;2023-02-26T17:46:12;2.80;1.00
9925;DHT22;5001;51.674;7.868;2023-02-26T17:48:39;2.80;1.00
9925;DHT22;5001;51.674;7.868;2023-02-26T17:51:07;2.80;1.00
9925;DHT22;5001;51.674;7.868;2023-02-26T17:53:34;2.90;1.00
9925;DHT22;5001;51.674;7.868;2023-02-26T17:56:26;2.90;1.00
9925;DHT22;5001;51.674;7.868;2023-02-26T17:58:54;3.00;1.00
9925;DHT22;5001;51.674;7.868;2023-02-26T18:01:24;3.00;1.00
9925;DHT22;5001;51.674;7.868;2023-02-26T18:03:55;2.90;1.00
9925;DHT22;5001;51.674;7.868;2023-02-26T18:06:23;3.00;1.00
9925;DHT22;5001;51.674;7.868;2023-02-26T18:08:51;3.00;1.00
9925;DHT22;5001;51.674;7.868;2023-02-26T18:11:18;3.00;1.00
9925;DHT22;5001;51.674;7.868;2023-02-26T18:13:46;3.00;1.00
9925;DHT22;5001;51.674;7.868;2023-02-26T18:16:19;2.90;1.00
9925;DHT22;5001;51.674;7.868;2023-02-26T18:18:48;2.80;1.00
9925;DHT22;5001;51.674;7.868;2023-02-26T18:21:15;2.80;1.00
9925;DHT22;5001;51.674;7.868;2023-02-26T18:23:41;2.70;1.00
9925;DHT22;5001;51.674;7.868;2023-02-26T18:26:09;2.70;1.00
9925;DHT22;5001;51.674;7.868;2023-02-26T18:28:37;2.60;1.00
9925;DHT22;5001;51.674;7.868;2023-02-26T18:31:04;2.60;1.00
9925;DHT22;5001;51.674;7.868;2023-02-26T18:33:35;2.50;1.00
9925;DHT22;5001;51.674;7.868;2023-02-26T18:36:04;2.40;1.00
9925;DHT22;5001;51.674;7.868;2023-02-26T18:38:32;2.30;1.00
9925;DHT22;5001;51.674;7.868;2023-02-26T18:41:00;2.30;1.00
9925;DHT22;5001;51.674;7.868;2023-02-26T18:43:28;2.20;1.00
9925;DHT22;5001;51.674;7.868;2023-02-26T18:45:55;2.20;1.00
9925;DHT22;5001;51.674;7.868;2023-02-26T18:48:27;2.10;1.00
9925;DHT22;5001;51.674;7.868;2023-02-26T18:50:54;2.10;1.00
9925;DHT22;5001;51.674;7.868;2023-02-26T18:53:22;2.10;1.00
9925;DHT22;5001;51.674;7.868;2023-02-26T18:55:50;2.10;1.00
9925;DHT22;5001;51.674;7.868;2023-02-26T18:58:20;2.10;1.00
9925;DHT22;5001;51.674;7.868;2023-02-26T19:00:47;2.10;1.00
9925;DHT22;5001;51.674;7.868;2023-02-26T19:03:14;2.00;1.00
9925;DHT22;5001;51.674;7.868;2023-02-26T19:05:41;2.00;1.00
9925;DHT22;5001;51.674;7.868;2023-02-26T19:08:08;1.90;1.00
9925;DHT22;5001;51.674;7.868;2023-02-26T19:10:36;1.90;1.00
9925;DHT22;5001;51.674;7.868;2023-02-26T19:13:03;1.90;1.00
9925;DHT22;5001;51.674;7.868;2023-02-26T19:15:30;1.80;1.00
9925;DHT22;5001;51.674;7.868;2023-02-26T19:17:57;1.80;1.00
9925;DHT22;5001;51.674;7.868;2023-02-26T19:20:24;1.80;1.00
9925;DHT22;5001;51.674;7.868;2023-02-26T19:22:52;1.80;1.00
9925;DHT22;5001;51.674;7.868;2023-02-26T19:25:20;1.70;1.00
9925;DHT22;5001;51.674;7.868;2023-02-26T19:27:51;1.70;1.00
9925;DHT22;5001;51.674;7.868;2023-02-26T19:30:20;1.60;1.00
9925;DHT22;5001;51.674;7.868;2023-02-26T19:32:49;1.60;1.00
9925;DHT22;5001;51.674;7.868;2023-02-26T19:35:16;1.60;1.00